< < Back
Terminal Aerodrome Forecast


Current Version              Previous Versions:   1  2  3  4  5  6  7  8  9  

Terminal Aerodrome Forecast

799
FTUS42 KFFC 181606 AAA
TAFCSG
TAF AMD
KCSG 181606Z 1816/1912 23004KT P6SM OVC016
     FM181800 19006KT P6SM VCSH BKN025
     FM190100 12004KT 6SM -RA BKN015
     FM190400 13006KT 3SM -SHRA BR BKN006 OVC012 PROB30 1910/1912
      1SM TSRA BKN004CB OVC008=

Latest METAR

156
SAUS70 KWBC 190300 RRV
MTRCSG
METAR KCSG 190351Z AUTO 00000KT 10SM SCT018 SCT048 OVC090 21/19 A2994
RMK AO2 RAB32E49 SLP133 P0008 T02060189


USA.gov is the U.S. government's official web portal to all federal, state and local government web resources and services.